Time;durP1;ratioP1;P1;durP2;ratioP2;P2;SDS_P1;SDS_P2;PMS_P1;PMS_P2;Temp;Humidity;BMP_temperature;BMP_pressure;BME280_temperature;BME280_humidity;BME280_pressure;Samples;Min_cycle;Max_cycle;Signal;HPM_P1;HPM_P2
2022/08/26 06:25:51;;;;;;;11.57;7.57;;;;;;;19.45;100.00;98672.16;5110172;27;20178;-82
2022/08/26 06:28:17;;;;;;;18.70;8.02;;;;;;;19.73;100.00;98670.28;5109762;27;20056;-80
2022/08/26 06:30:44;;;;;;;13.77;7.95;;;;;;;20.03;96.29;98676.47;5106648;28;20501;-81
2022/08/26 06:33:10;;;;;;;14.10;7.53;;;;;;;20.28;92.91;98682.25;5107664;28;20616;-82
2022/08/26 06:35:38;;;;;;;13.27;7.75;;;;;;;20.41;87.90;98672.69;5107969;27;20101;-82
2022/08/26 06:38:06;;;;;;;12.07;7.30;;;;;;;20.80;86.39;98668.94;5108562;28;20528;-82
2022/08/26 06:40:33;;;;;;;17.25;8.35;;;;;;;21.17;82.91;98662.59;5107363;28;20411;-80
2022/08/26 06:43:01;;;;;;;15.07;8.52;;;;;;;21.48;80.43;98673.81;5107553;28;20040;-80
2022/08/26 06:45:28;;;;;;;15.75;8.45;;;;;;;21.83;78.57;98669.56;5106841;28;20047;-81
2022/08/26 06:47:57;;;;;;;16.75;8.10;;;;;;;22.02;76.61;98664.38;5107857;28;20133;-81
2022/08/26 06:50:23;;;;;;;19.42;7.93;;;;;;;22.41;75.07;98675.00;5108045;27;20056;-81
2022/08/26 06:52:51;;;;;;;14.95;8.45;;;;;;;22.59;73.91;98685.56;5107413;28;20044;-81
2022/08/26 06:55:18;;;;;;;19.35;8.20;;;;;;;22.81;72.89;98667.84;5107422;27;20139;-81
2022/08/26 06:57:44;;;;;;;16.10;7.93;;;;;;;23.09;71.39;98680.31;5108210;28;20052;-81
2022/08/26 07:00:14;;;;;;;19.92;9.15;;;;;;;23.06;71.14;98677.25;5106103;28;20073;-81
2022/08/26 07:02:40;;;;;;;14.88;8.35;;;;;;;23.43;70.37;98671.38;5106183;28;20044;-82
2022/08/26 07:05:08;;;;;;;20.38;7.88;;;;;;;23.26;69.42;98668.94;5097258;27;20048;-82
2022/08/26 07:07:34;;;;;;;17.85;7.68;;;;;;;23.52;69.14;98674.41;5087398;28;20051;-82
2022/08/26 07:10:01;;;;;;;23.40;7.03;;;;;;;23.73;68.70;98672.41;5087376;28;20056;-82
2022/08/26 07:12:28;;;;;;;21.08;8.20;;;;;;;23.34;70.42;98656.44;5086894;28;20052;-81
2022/08/26 07:14:54;;;;;;;18.00;8.23;;;;;;;23.46;70.23;98664.44;5087484;28;20048;-82
2022/08/26 07:17:22;;;;;;;16.67;7.57;;;;;;;23.44;70.54;98661.09;5087198;27;20504;-84
2022/08/26 07:19:49;;;;;;;17.17;7.78;;;;;;;23.58;70.31;98675.22;5098733;28;20477;-81
2022/08/26 07:22:16;;;;;;;25.77;7.95;;;;;;;23.78;70.58;98669.59;5097650;28;20461;-81
2022/08/26 07:24:43;;;;;;;20.75;8.43;;;;;;;23.43;70.04;98665.84;5086323;28;20082;-82
2022/08/26 07:27:12;;;;;;;11.68;7.03;;;;;;;23.46;70.62;98672.75;5087015;28;20052;-81
2022/08/26 07:29:41;;;;;;;21.30;8.80;;;;;;;23.77;69.98;98669.88;5086997;28;20052;-82
2022/08/26 07:32:08;;;;;;;18.10;8.05;;;;;;;24.09;68.39;98671.41;5086111;28;20450;-82
2022/08/26 07:34:37;;;;;;;19.75;7.90;;;;;;;23.98;67.81;98682.59;5087040;28;20499;-81
2022/08/26 07:37:04;;;;;;;25.95;7.75;;;;;;;24.08;67.89;98669.78;5092762;28;20040;-82
2022/08/26 07:39:31;;;;;;;18.90;7.95;;;;;;;24.38;67.00;98683.47;5093475;28;20052;-82
2022/08/26 07:41:59;;;;;;;27.38;7.47;;;;;;;24.15;67.60;98668.34;5092061;28;20082;-81
2022/08/26 07:44:26;;;;;;;24.10;8.73;;;;;;;24.32;67.13;98694.91;5092616;28;20047;-82
2022/08/26 07:46:53;;;;;;;22.35;9.45;;;;;;;24.41;66.80;98684.00;5093707;28;20125;-82
2022/08/26 07:49:20;;;;;;;21.17;7.28;;;;;;;24.45;66.55;98669.25;5093562;28;20044;-82
2022/08/26 07:51:48;;;;;;;14.50;7.93;;;;;;;24.46;65.92;98667.31;5093251;28;20459;-82
2022/08/26 07:54:15;;;;;;;13.68;7.28;;;;;;;24.56;64.94;98676.38;5091439;28;20079;-82
2022/08/26 07:56:42;;;;;;;19.30;6.85;;;;;;;24.56;65.29;98678.34;5092817;28;20105;-82
2022/08/26 07:59:08;;;;;;;14.43;6.20;;;;;;;24.63;64.63;98669.69;5093148;28;20044;-83
2022/08/26 08:01:35;;;;;;;11.02;6.35;;;;;;;24.93;63.51;98685.31;5093924;28;20382;-82
2022/08/26 08:04:03;;;;;;;10.95;5.95;;;;;;;24.90;63.09;98680.31;5092679;28;20142;-82
2022/08/26 08:06:30;;;;;;;13.95;6.07;;;;;;;24.95;61.81;98662.78;5093185;28;20391;-82
2022/08/26 08:08:57;;;;;;;11.38;5.80;;;;;;;25.11;61.33;98671.81;5092773;28;20552;-81
2022/08/26 08:11:26;;;;;;;15.27;6.78;;;;;;;25.18;61.03;98675.06;5092366;28;20497;-82
2022/08/26 08:13:52;;;;;;;15.13;6.43;;;;;;;25.14;60.73;98672.06;5091739;28;20427;-82
2022/08/26 08:16:19;;;;;;;13.02;6.47;;;;;;;25.21;60.74;98671.69;5093000;28;20479;-82
2022/08/26 08:18:45;;;;;;;12.38;6.38;;;;;;;25.52;60.84;98665.81;5092905;28;20060;-82
2022/08/26 08:21:12;;;;;;;16.00;6.93;;;;;;;25.60;59.75;98668.78;5092924;28;20044;-82
2022/08/26 08:23:39;;;;;;;14.02;6.07;;;;;;;25.69;59.53;98668.97;5091268;28;20051;-82
2022/08/26 08:26:08;;;;;;;11.98;6.05;;;;;;;25.77;59.13;98664.69;5091707;28;20075;-82
2022/08/26 08:28:38;;;;;;;16.02;6.40;;;;;;;25.78;58.71;98652.44;5091725;28;20048;-82
2022/08/26 08:31:06;;;;;;;19.17;6.70;;;;;;;25.94;58.05;98655.84;5092492;28;20051;-82
2022/08/26 08:33:33;;;;;;;12.57;5.45;;;;;;;26.08;57.58;98665.16;5091795;28;20113;-82
2022/08/26 08:36:00;;;;;;;8.00;6.18;;;;;;;26.26;57.52;98668.28;5092410;28;20048;-82
2022/08/26 08:38:28;;;;;;;16.95;6.22;;;;;;;26.38;56.14;98659.47;5092469;28;20449;-82
2022/08/26 08:40:57;;;;;;;11.40;5.65;;;;;;;26.35;56.63;98665.66;5093013;28;20278;-82
2022/08/26 08:43:32;;;;;;;12.27;5.93;;;;;;;26.45;56.14;98657.94;5093369;28;20055;-82
2022/08/26 08:46:04;;;;;;;8.63;5.32;;;;;;;26.65;56.87;98669.91;5090918;28;20483;-82
2022/08/26 08:48:35;;;;;;;11.68;6.20;;;;;;;26.87;56.41;98660.09;5092144;28;20040;-82
2022/08/26 08:51:15;;;;;;;10.73;6.38;;;;;;;26.84;54.48;98653.16;5093683;28;20059;-82
2022/08/26 08:53:45;;;;;;;12.32;5.90;;;;;;;26.67;55.03;98657.34;5092367;28;20056;-82
2022/08/26 08:56:22;;;;;;;14.13;6.00;;;;;;;26.81;55.21;98659.34;5091763;28;20048;-82
2022/08/26 08:59:01;;;;;;;12.98;6.47;;;;;;;26.85;54.06;98652.84;5090312;28;20442;-82
2022/08/26 09:01:41;;;;;;;11.50;5.50;;;;;;;26.94;54.71;98638.22;5091091;28;20051;-82
2022/08/26 09:04:23;;;;;;;10.73;5.60;;;;;;;27.16;54.26;98657.09;5090687;28;20480;-82
2022/08/26 09:06:54;;;;;;;18.20;6.53;;;;;;;27.18;53.52;98638.06;5091587;28;20048;-82
2022/08/26 09:09:23;;;;;;;12.50;5.80;;;;;;;27.28;53.77;98646.25;5091827;28;20101;-81
2022/08/26 09:11:50;;;;;;;13.80;5.65;;;;;;;27.31;52.53;98644.78;5091820;28;20139;-81
2022/08/26 09:14:18;;;;;;;11.65;5.63;;;;;;;27.08;52.77;98636.28;5091225;28;20537;-82
2022/08/26 09:16:51;;;;;;;10.65;5.75;;;;;;;27.44;51.89;98640.41;5091928;28;20074;-82
2022/08/26 09:19:26;;;;;;;8.15;5.20;;;;;;;27.34;51.50;98622.72;5090294;28;20069;-82
2022/08/26 09:21:56;;;;;;;11.30;5.55;;;;;;;27.63;51.56;98643.09;5091487;28;20056;-82
2022/08/26 09:24:23;;;;;;;12.73;4.95;;;;;;;27.75;51.60;98636.97;5090231;28;20060;-82
2022/08/26 09:26:51;;;;;;;15.48;5.47;;;;;;;27.64;50.33;98627.97;5091602;28;20055;-82
2022/08/26 09:29:25;;;;;;;16.08;5.43;;;;;;;27.95;49.95;98616.16;5091767;28;20455;-82
2022/08/26 09:32:12;;;;;;;11.98;5.05;;;;;;;27.92;50.36;98626.00;5091356;28;20052;-82
2022/08/26 09:34:53;;;;;;;11.05;5.75;;;;;;;28.01;49.67;98615.75;5090362;28;20130;-82
2022/08/26 09:37:36;;;;;;;12.50;5.32;;;;;;;28.17;48.98;98626.56;5091580;28;20117;-82
2022/08/26 09:40:18;;;;;;;13.65;5.10;;;;;;;28.34;49.04;98615.56;5091240;28;20052;-82
2022/08/26 09:42:47;;;;;;;10.30;5.45;;;;;;;28.05;48.80;98599.22;5090660;28;20503;-83
2022/08/26 09:45:15;;;;;;;24.80;5.85;;;;;;;28.35;48.60;98610.78;5091179;28;20048;-83
2022/08/26 09:47:54;;;;;;;11.82;5.00;;;;;;;28.59;47.70;98602.13;5091389;28;20056;-82
2022/08/26 09:50:26;;;;;;;12.60;5.45;;;;;;;28.53;47.65;98593.03;5091401;28;20044;-82
2022/08/26 09:53:05;;;;;;;17.55;6.10;;;;;;;28.59;48.16;98597.38;5089458;28;20120;-82
2022/08/26 09:55:31;;;;;;;17.88;6.93;;;;;;;28.54;47.44;98600.25;5090836;28;20102;-83
2022/08/26 09:57:58;;;;;;;14.00;5.40;;;;;;;28.81;47.69;98594.88;5091474;28;20047;-83
2022/08/26 10:00:29;;;;;;;16.67;5.22;;;;;;;29.09;47.13;98584.34;5091294;28;20433;-83
2022/08/26 10:02:57;;;;;;;10.52;5.28;;;;;;;28.94;46.27;98586.38;5090185;28;20133;-83
2022/08/26 10:05:31;;;;;;;14.98;5.70;;;;;;;28.83;46.46;98575.78;5090888;28;20058;-83
2022/08/26 10:08:00;;;;;;;14.93;5.88;;;;;;;29.07;46.45;98564.22;5089831;28;20051;-82
2022/08/26 10:10:31;;;;;;;12.55;4.97;;;;;;;29.14;45.83;98556.19;5090853;28;20064;-82
2022/08/26 10:13:04;;;;;;;10.35;5.97;;;;;;;29.43;45.53;98575.28;5090108;28;20083;-82
2022/08/26 10:15:41;;;;;;;16.08;6.68;;;;;;;29.76;44.75;98582.44;5090696;28;20044;-83
2022/08/26 10:18:14;;;;;;;13.35;4.72;;;;;;;29.82;43.93;98583.97;5090731;28;20044;-82
2022/08/26 10:20:51;;;;;;;14.63;4.35;;;;;;;29.29;43.44;98592.16;5091342;28;20048;-82
2022/08/26 10:23:21;;;;;;;12.77;3.85;;;;;;;28.82;42.32;98586.16;5092036;28;20048;-83
2022/08/26 10:25:54;;;;;;;11.95;4.25;;;;;;;28.32;44.00;98584.31;5089178;28;20052;-82
2022/08/26 10:28:27;;;;;;;10.30;3.83;;;;;;;28.03;45.12;98593.94;5090737;28;20044;-83
2022/08/26 10:31:02;;;;;;;11.82;4.35;;;;;;;27.78;45.94;98594.47;5091539;28;20056;-82
2022/08/26 10:33:29;;;;;;;15.80;4.30;;;;;;;27.44;47.34;98588.19;5090951;28;20063;-82
2022/08/26 10:35:58;;;;;;;12.90;4.53;;;;;;;27.39;47.36;98581.91;5093897;28;20125;-81
2022/08/26 10:38:33;;;;;;;12.43;4.43;;;;;;;27.29;46.76;98571.72;5092018;28;20052;-82
2022/08/26 10:41:04;;;;;;;10.25;3.90;;;;;;;27.26;46.04;98592.69;5093126;28;20055;-82
2022/08/26 10:43:39;;;;;;;11.65;4.28;;;;;;;27.04;45.95;98590.63;5092587;28;20044;-80
2022/08/26 10:46:12;;;;;;;7.78;3.60;;;;;;;27.08;45.90;98593.63;5092129;28;20052;-81
2022/08/26 10:48:43;;;;;;;7.88;3.65;;;;;;;26.95;46.66;98590.50;5092860;28;20056;-82
2022/08/26 10:51:13;;;;;;;11.18;3.85;;;;;;;26.91;46.88;98566.34;5090600;28;20097;-82
2022/08/26 10:53:54;;;;;;;8.45;4.07;;;;;;;27.00;47.31;98575.63;5088685;28;20067;-83
2022/08/26 10:56:43;;;;;;;8.50;4.03;;;;;;;26.81;47.22;98559.81;5101839;28;20028;-83
2022/08/26 10:59:28;;;;;;;7.78;3.60;;;;;;;26.88;47.35;98562.19;5088087;28;20052;-83
2022/08/26 11:02:03;;;;;;;10.52;3.85;;;;;;;26.91;48.00;98563.53;5093616;28;20051;-80
2022/08/26 11:04:44;;;;;;;9.75;3.80;;;;;;;26.94;48.13;98554.56;5102069;28;20048;-82
2022/08/26 11:07:35;;;;;;;9.82;4.32;;;;;;;26.99;48.20;98560.03;5100870;28;20036;-81
2022/08/26 11:10:03;;;;;;;13.10;4.78;;;;;;;27.02;48.29;98571.41;5099982;28;20052;-81
2022/08/26 11:12:50;;;;;;;9.68;4.00;;;;;;;26.90;48.68;98570.25;5095723;28;20051;-81
2022/08/26 11:16:08;;;;;;;10.38;4.00;;;;;;;26.56;49.18;98563.84;5090430;28;20081;-80
2022/08/26 11:18:42;;;;;;;9.88;4.70;;;;;;;26.52;49.76;98557.22;5091234;28;20040;-81
2022/08/26 11:21:45;;;;;;;9.38;4.18;;;;;;;26.56;49.95;98563.03;5088841;28;20053;-81
2022/08/26 11:24:44;;;;;;;12.10;5.05;;;;;;;26.57;49.78;98557.16;5087524;28;20052;-82
2022/08/26 11:28:02;;;;;;;13.60;4.13;;;;;;;26.62;49.73;98553.44;5091583;28;20449;-82
2022/08/26 11:30:49;;;;;;;10.75;3.83;;;;;;;26.69;49.37;98545.53;5090741;28;20059;-82
2022/08/26 11:33:46;;;;;;;12.55;4.82;;;;;;;26.78;49.14;98543.72;5093071;28;20044;-82
2022/08/26 11:36:47;;;;;;;14.40;3.95;;;;;;;26.76;49.50;98531.19;5094408;28;20044;-81
2022/08/26 11:39:21;;;;;;;11.15;4.20;;;;;;;26.82;49.03;98516.84;5091965;28;20036;-81
2022/08/26 11:41:50;;;;;;;8.95;4.65;;;;;;;26.79;48.97;98514.66;5091620;28;20778;-81
2022/08/26 11:44:20;;;;;;;8.20;4.63;;;;;;;26.84;49.04;98505.38;5093508;28;20040;-81
2022/08/26 11:46:53;;;;;;;14.80;4.75;;;;;;;27.07;49.08;98514.69;5092146;28;20046;-81
2022/08/26 11:49:21;;;;;;;12.23;5.07;;;;;;;27.17;51.21;98516.44;5097741;28;20486;-82
2022/08/26 11:51:48;;;;;;;14.65;5.43;;;;;;;27.10;54.77;98516.03;5092207;28;20445;-81
2022/08/26 11:54:17;;;;;;;11.27;4.85;;;;;;;27.11;53.05;98534.41;5098826;28;20050;-82
2022/08/26 11:56:46;;;;;;;7.68;4.43;;;;;;;27.20;49.15;98538.97;5091689;28;20059;-82
2022/08/26 11:59:18;;;;;;;13.00;4.55;;;;;;;27.36;48.11;98547.06;5092777;28;20044;-81
2022/08/26 12:01:49;;;;;;;8.77;4.40;;;;;;;27.59;48.45;98564.72;5093250;28;20048;-81
2022/08/26 12:04:27;;;;;;;8.32;4.07;;;;;;;27.60;47.24;98560.78;5097837;28;20410;-82
2022/08/26 12:06:54;;;;;;;8.27;4.47;;;;;;;27.82;45.54;98557.22;5090720;28;20502;-82
2022/08/26 12:09:26;;;;;;;5.95;3.10;;;;;;;28.06;42.25;98558.94;5087527;28;20036;-82
2022/08/26 12:12:09;;;;;;;5.53;3.17;;;;;;;28.30;41.89;98555.03;5091733;28;20055;-81
2022/08/26 12:14:36;;;;;;;4.50;3.08;;;;;;;28.49;40.47;98524.91;5092610;28;20040;-83
2022/08/26 12:17:09;;;;;;;8.63;3.35;;;;;;;28.63;40.65;98529.63;5092022;28;20100;-82
2022/08/26 12:19:37;;;;;;;6.00;2.95;;;;;;;28.70;41.57;98522.44;5091609;28;20036;-82
2022/08/26 12:22:06;;;;;;;7.40;4.03;;;;;;;28.76;42.16;98511.94;5092057;28;20427;-82
2022/08/26 12:24:33;;;;;;;12.82;4.57;;;;;;;28.82;42.24;98515.41;5097219;28;20051;-83
2022/08/26 12:27:15;;;;;;;15.77;5.03;;;;;;;29.04;41.27;98511.72;5089727;28;20071;-82
2022/08/26 12:29:42;;;;;;;8.02;3.75;;;;;;;29.45;40.88;98511.38;5087806;28;20093;-82
2022/08/26 12:32:12;;;;;;;10.40;4.03;;;;;;;29.75;40.27;98496.75;5090592;28;20055;-81
2022/08/26 12:34:40;;;;;;;8.25;4.40;;;;;;;29.88;39.35;98511.78;5092819;28;20056;-82
2022/08/26 12:37:10;;;;;;;9.05;4.20;;;;;;;29.90;38.99;98501.91;5090859;28;20270;-82
2022/08/26 12:39:39;;;;;;;7.95;3.53;;;;;;;30.20;38.01;98504.88;5091185;28;20201;-83
2022/08/26 12:42:22;;;;;;;9.50;3.90;;;;;;;30.24;39.56;98502.22;5089804;28;20047;-82
2022/08/26 12:44:57;;;;;;;15.13;4.68;;;;;;;30.27;41.92;98498.75;5087443;28;20495;-82
2022/08/26 12:47:27;;;;;;;10.63;5.28;;;;;;;29.99;43.49;98491.53;5094396;28;20449;-82
2022/08/26 12:50:04;;;;;;;10.32;4.53;;;;;;;29.82;43.83;98488.72;5093999;28;20548;-82
2022/08/26 12:52:34;;;;;;;19.98;5.13;;;;;;;29.42;42.78;98498.03;5091728;28;20075;-82
2022/08/26 12:55:06;;;;;;;9.30;4.30;;;;;;;29.12;43.10;98499.75;5090251;28;20059;-83
2022/08/26 12:57:34;;;;;;;16.27;4.57;;;;;;;28.90;43.93;98497.84;5092066;28;20488;-82
2022/08/26 13:00:38;;;;;;;17.27;4.47;;;;;;;28.77;44.29;98492.03;5091736;28;20166;-83
2022/08/26 13:03:24;;;;;;;14.75;5.50;;;;;;;28.48;45.37;98484.09;5089643;28;20229;-83
2022/08/26 13:05:52;;;;;;;13.30;5.43;;;;;;;28.52;44.97;98476.75;5091961;28;20086;-82
2022/08/26 13:08:25;;;;;;;16.13;4.70;;;;;;;28.37;46.38;98485.53;5091815;28;20101;-82
2022/08/26 13:11:03;;;;;;;13.70;4.88;;;;;;;28.17;47.11;98473.75;5091836;28;20044;-82
2022/08/26 13:13:30;;;;;;;23.23;6.03;;;;;;;28.19;47.32;98477.03;5091364;28;20051;-82
2022/08/26 13:15:56;;;;;;;13.05;4.82;;;;;;;28.20;47.29;98478.69;5091357;28;20537;-82
2022/08/26 13:18:24;;;;;;;14.65;5.28;;;;;;;28.04;47.15;98481.03;5090705;28;20078;-82
2022/08/26 13:20:52;;;;;;;18.77;5.93;;;;;;;27.99;46.98;98472.78;5091344;28;20056;-83
2022/08/26 13:23:19;;;;;;;16.00;5.70;;;;;;;27.96;47.08;98464.16;5091332;28;20200;-82
2022/08/26 13:25:45;;;;;;;14.07;5.88;;;;;;;28.02;46.36;98460.97;5091558;28;20130;-83
2022/08/26 13:28:12;;;;;;;14.85;5.10;;;;;;;28.09;46.25;98446.56;5091660;28;20121;-83
2022/08/26 13:30:39;;;;;;;15.93;6.30;;;;;;;28.16;46.48;98454.50;5091831;28;20057;-83
2022/08/26 13:33:06;;;;;;;20.02;5.80;;;;;;;28.04;45.87;98439.13;5090598;28;20063;-82
2022/08/26 13:35:33;;;;;;;19.65;5.47;;;;;;;28.03;46.07;98453.41;5089685;28;20159;-81
2022/08/26 13:38:01;;;;;;;15.57;4.82;;;;;;;28.01;45.16;98450.94;5091295;28;20513;-80
2022/08/26 13:40:27;;;;;;;13.57;5.20;;;;;;;28.07;44.63;98452.47;5091620;28;20066;-82
2022/08/26 13:42:54;;;;;;;16.02;4.95;;;;;;;28.15;44.43;98450.03;5090748;28;20056;-80
2022/08/26 13:45:20;;;;;;;17.92;4.80;;;;;;;28.23;45.34;98454.88;5091918;28;20449;-82
2022/08/26 13:47:47;;;;;;;17.17;4.75;;;;;;;28.34;44.36;98450.66;5091308;28;20055;-83
2022/08/26 13:50:14;;;;;;;13.80;6.65;;;;;;;28.55;44.66;98447.31;5090244;28;20048;-83
2022/08/26 13:52:40;;;;;;;13.48;5.35;;;;;;;28.71;43.95;98430.97;5090151;28;20063;-83
2022/08/26 13:55:09;;;;;;;9.68;4.18;;;;;;;28.95;42.17;98436.97;5089399;28;20043;-83
2022/08/26 13:57:37;;;;;;;11.63;4.90;;;;;;;29.43;42.04;98432.50;5090589;28;20044;-83
2022/08/26 14:00:04;;;;;;;15.63;5.15;;;;;;;29.54;40.96;98435.81;5090656;28;20044;-83
2022/08/26 14:02:31;;;;;;;10.45;4.93;;;;;;;29.64;40.51;98429.03;5086780;28;20048;-83
2022/08/26 14:04:57;;;;;;;26.27;4.50;;;;;;;29.93;39.93;98434.00;5091058;28;20040;-83
2022/08/26 14:07:25;;;;;;;20.42;6.10;;;;;;;30.12;39.74;98430.03;5089956;28;20051;-83
2022/08/26 14:09:51;;;;;;;12.43;4.53;;;;;;;30.46;39.47;98423.53;5090483;28;20566;-83
2022/08/26 14:12:19;;;;;;;14.40;4.90;;;;;;;30.76;38.59;98425.53;5090118;28;20506;-82
2022/08/26 14:14:46;;;;;;;21.35;4.72;;;;;;;31.00;38.40;98414.56;5091116;28;20163;-82
2022/08/26 14:17:18;;;;;;;15.07;4.70;;;;;;;31.19;37.79;98421.72;5090628;28;20055;-83
2022/08/26 14:19:46;;;;;;;13.82;4.50;;;;;;;31.44;36.66;98421.88;5090933;28;20094;-82
2022/08/26 14:22:15;;;;;;;12.53;4.33;;;;;;;31.65;37.05;98419.91;5089930;28;20060;-83
2022/08/26 14:24:41;;;;;;;9.15;4.40;;;;;;;31.55;36.55;98411.91;5089251;28;20310;-82
2022/08/26 14:27:08;;;;;;;10.75;4.68;;;;;;;31.51;36.59;98413.72;5090334;28;20044;-82
2022/08/26 14:29:37;;;;;;;12.18;5.22;;;;;;;31.37;36.80;98406.38;5090914;28;20143;-82
2022/08/26 14:32:10;;;;;;;18.03;4.57;;;;;;;31.19;37.33;98400.06;5090060;28;20040;-83
2022/08/26 14:34:37;;;;;;;15.13;4.55;;;;;;;31.37;37.26;98402.75;5090743;28;20048;-83
2022/08/26 14:37:04;;;;;;;8.25;4.47;;;;;;;31.27;36.92;98392.78;5090418;28;20052;-83
2022/08/26 14:39:30;;;;;;;14.30;4.90;;;;;;;31.33;37.13;98404.59;5090312;28;20066;-83
2022/08/26 14:41:57;;;;;;;19.35;4.50;;;;;;;31.55;36.79;98395.88;5088705;28;20044;-83
2022/08/26 14:44:27;;;;;;;17.40;4.70;;;;;;;31.32;36.88;98391.75;5090636;28;20039;-84
2022/08/26 14:46:56;;;;;;;11.95;4.28;;;;;;;31.46;36.28;98378.25;5093482;28;20076;-83
2022/08/26 14:49:25;;;;;;;17.33;4.32;;;;;;;31.63;36.29;98385.75;5094934;28;20074;-83
2022/08/26 14:51:52;;;;;;;8.63;3.95;;;;;;;31.51;36.12;98374.41;5093025;28;20044;-82
2022/08/26 14:54:19;;;;;;;12.52;5.22;;;;;;;31.39;36.16;98373.19;5092091;28;20040;-83
2022/08/26 14:56:48;;;;;;;11.27;4.18;;;;;;;31.47;35.95;98373.47;5094274;28;20093;-83
2022/08/26 14:59:17;;;;;;;12.15;4.22;;;;;;;31.21;36.16;98377.25;5092801;28;20460;-83
2022/08/26 15:01:44;;;;;;;12.27;4.37;;;;;;;31.16;35.80;98377.47;5094384;28;20051;-84
2022/08/26 15:04:12;;;;;;;30.83;5.22;;;;;;;31.44;35.72;98385.38;5093557;28;20285;-83
2022/08/26 15:06:39;;;;;;;16.80;4.38;;;;;;;31.60;33.64;98389.22;5094516;28;20059;-82
2022/08/26 15:09:06;;;;;;;10.57;3.78;;;;;;;31.44;34.16;98383.38;5094200;28;20082;-81
2022/08/26 15:11:32;;;;;;;10.45;4.15;;;;;;;31.15;34.60;98384.25;5094358;28;20484;-82
2022/08/26 15:13:59;;;;;;;14.82;4.38;;;;;;;30.92;35.20;98400.56;5092892;28;20509;-83
2022/08/26 15:16:27;;;;;;;9.35;4.47;;;;;;;30.51;36.02;98388.88;5093199;28;20048;-82
2022/08/26 15:18:53;;;;;;;7.72;4.03;;;;;;;30.51;36.33;98400.91;5093753;28;20507;-83
2022/08/26 15:21:21;;;;;;;12.32;4.57;;;;;;;30.37;36.01;98389.06;5094281;28;20059;-82
2022/08/26 15:23:49;;;;;;;15.68;4.63;;;;;;;30.22;37.13;98386.81;5092887;28;20051;-83
2022/08/26 15:26:17;;;;;;;7.32;4.05;;;;;;;30.43;36.67;98386.94;5094030;28;20449;-82
2022/08/26 15:28:45;;;;;;;7.40;3.70;;;;;;;30.33;36.80;98390.88;5093934;28;20044;-83
2022/08/26 15:31:12;;;;;;;12.52;4.15;;;;;;;30.23;36.84;98385.63;5093912;28;20441;-83
2022/08/26 15:33:39;;;;;;;14.20;4.93;;;;;;;30.20;37.57;98373.13;5091850;28;20056;-83
2022/08/26 15:36:07;;;;;;;10.77;4.05;;;;;;;30.14;36.92;98380.91;5094595;28;20475;-80
2022/08/26 15:38:38;;;;;;;5.85;3.60;;;;;;;29.93;36.85;98375.19;5095535;28;20487;-80
2022/08/26 15:41:07;;;;;;;13.25;4.55;;;;;;;29.90;37.41;98380.59;5095917;28;20097;-80
2022/08/26 15:43:34;;;;;;;9.53;4.10;;;;;;;29.70;37.69;98377.31;5086592;28;20052;-80
2022/08/26 15:46:01;;;;;;;6.78;3.85;;;;;;;29.63;37.45;98386.22;5106239;28;20312;-80
2022/08/26 15:48:27;;;;;;;6.45;3.30;;;;;;;29.44;37.03;98383.75;5106271;28;20044;-80
2022/08/26 15:50:56;;;;;;;10.77;4.07;;;;;;;29.10;37.31;98384.50;5093680;28;20044;-80
2022/08/26 15:53:23;;;;;;;11.93;3.85;;;;;;;29.09;37.09;98388.47;5092213;28;20040;-80
2022/08/26 15:55:53;;;;;;;12.52;3.53;;;;;;;28.95;37.30;98388.59;5090957;28;20437;-80
2022/08/26 15:58:19;;;;;;;6.60;3.00;;;;;;;28.98;37.43;98390.75;5077278;28;20135;-80
2022/08/26 16:00:46;;;;;;;9.20;3.67;;;;;;;28.93;37.23;98382.50;5073126;28;20067;-80
2022/08/26 16:03:12;;;;;;;10.80;3.30;;;;;;;28.93;37.46;98374.09;5072107;28;20053;-80
2022/08/26 16:05:42;;;;;;;9.50;3.33;;;;;;;29.00;36.81;98393.22;5073220;28;20045;-80
2022/08/26 16:08:09;;;;;;;8.48;3.55;;;;;;;28.93;37.41;98404.88;5072995;28;20047;-80
2022/08/26 16:10:38;;;;;;;10.93;3.13;;;;;;;28.88;37.25;98407.84;5073036;28;20492;-80
2022/08/26 16:13:09;;;;;;;13.90;5.50;;;;;;;28.83;38.01;98399.56;5082820;28;20392;-80
2022/08/26 16:15:36;;;;;;;16.15;8.70;;;;;;;28.68;38.65;98412.03;5093210;28;20048;-81
2022/08/26 16:18:03;;;;;;;18.20;9.48;;;;;;;28.53;38.81;98444.84;5092601;28;20131;-80
2022/08/26 16:20:32;;;;;;;20.50;6.30;;;;;;;28.03;42.65;98459.00;5092773;28;20044;-80
2022/08/26 16:22:59;;;;;;;6.70;4.00;;;;;;;27.17;46.07;98475.44;5092084;28;20608;-81
2022/08/26 16:25:26;;;;;;;8.77;3.88;;;;;;;26.47;47.89;98496.84;5092602;28;20048;-81
2022/08/26 16:27:53;;;;;;;37.22;4.35;;;;;;;25.70;50.14;98506.41;5085166;28;20048;-80
2022/08/26 16:30:21;;;;;;;9.38;4.20;;;;;;;25.33;52.48;98521.13;5072523;28;20059;-81
2022/08/26 16:32:48;;;;;;;10.27;3.97;;;;;;;25.23;53.76;98517.31;5080515;28;20048;-80
2022/08/26 16:35:16;;;;;;;13.25;3.70;;;;;;;24.79;56.71;98507.25;5092763;28;20059;-81
2022/08/26 16:37:42;;;;;;;8.32;3.70;;;;;;;24.55;59.37;98518.31;5092507;28;20132;-81
2022/08/26 16:40:10;;;;;;;9.10;3.45;;;;;;;24.26;61.34;98529.41;5092492;28;20055;-81
2022/08/26 16:42:37;;;;;;;9.85;3.45;;;;;;;24.17;61.55;98529.19;5091226;28;20498;-81
2022/08/26 16:45:07;;;;;;;5.82;2.55;;;;;;;23.97;62.65;98539.34;5088670;28;20798;-84
2022/08/26 16:47:35;;;;;;;12.70;3.28;;;;;;;23.77;63.59;98523.63;5089509;28;20526;-82
2022/08/26 16:50:02;;;;;;;7.75;3.33;;;;;;;23.59;65.07;98516.81;5084950;28;20079;-83
2022/08/26 16:52:38;;;;;;;9.18;3.25;;;;;;;23.73;65.43;98524.50;5089601;28;20166;-82
2022/08/26 16:55:05;;;;;;;7.50;3.20;;;;;;;23.29;68.26;98537.19;5087608;28;20048;-83
2022/08/26 16:57:34;;;;;;;6.47;3.15;;;;;;;23.04;71.03;98535.34;5087820;28;20047;-81
2022/08/26 17:00:03;;;;;;;5.38;3.50;;;;;;;22.98;72.08;98538.09;5089959;28;20047;-82
2022/08/26 17:02:30;;;;;;;4.88;3.10;;;;;;;22.98;71.27;98535.31;5088216;28;20040;-83
2022/08/26 17:04:58;;;;;;;4.90;2.95;;;;;;;22.94;70.82;98539.81;5088922;28;20040;-81
2022/08/26 17:07:25;;;;;;;7.97;2.63;;;;;;;22.89;69.94;98528.72;5089613;28;20048;-82
2022/08/26 17:09:52;;;;;;;8.07;2.90;;;;;;;22.73;69.95;98521.53;5088477;28;20078;-82
2022/08/26 17:12:19;;;;;;;7.05;3.20;;;;;;;22.72;70.32;98528.22;5088102;28;20048;-82
2022/08/26 17:14:46;;;;;;;3.00;2.53;;;;;;;22.79;68.77;98532.34;5089605;28;20457;-82
2022/08/26 17:17:13;;;;;;;10.77;3.20;;;;;;;22.73;66.81;98536.25;5089646;28;20047;-83
2022/08/26 17:19:42;;;;;;;5.93;2.72;;;;;;;22.70;66.13;98527.66;5087655;28;20094;-82
2022/08/26 17:22:11;;;;;;;8.60;2.73;;;;;;;22.74;65.45;98525.97;5088231;28;20592;-83
2022/08/26 17:24:38;;;;;;;9.57;3.80;;;;;;;22.79;63.58;98526.81;5089524;28;20297;-82
2022/08/26 17:27:05;;;;;;;6.13;2.35;;;;;;;22.82;62.52;98539.25;5088395;28;20054;-81
2022/08/26 17:29:31;;;;;;;4.82;2.33;;;;;;;22.76;62.14;98535.69;5089110;28;20052;-80
2022/08/26 17:31:58;;;;;;;5.60;2.58;;;;;;;22.82;60.72;98519.84;5088911;28;20048;-81
2022/08/26 17:34:25;;;;;;;6.05;2.15;;;;;;;22.91;59.90;98536.75;5087061;28;20059;-82
2022/08/26 17:36:55;;;;;;;2.72;2.05;;;;;;;22.95;61.04;98551.69;5086556;28;20040;-81
2022/08/26 17:39:24;;;;;;;;;;;;;;;22.77;63.14;98556.72;5089699;28;20052;-81
2022/08/26 17:41:51;;;;;;;4.68;2.15;;;;;;;22.66;65.17;98555.09;5088138;28;19920;-80
2022/08/26 17:44:17;;;;;;;10.93;2.45;;;;;;;22.49;67.55;98535.16;5088842;28;20048;-81
2022/08/26 17:46:44;;;;;;;3.22;2.17;;;;;;;22.37;70.01;98541.84;5089329;28;20059;-81
2022/08/26 17:49:10;;;;;;;5.38;2.85;;;;;;;22.01;71.72;98550.09;5081889;28;20414;-81
2022/08/26 17:51:37;;;;;;;5.28;2.92;;;;;;;21.74;74.00;98564.16;5083747;28;20055;-81
2022/08/26 17:54:03;;;;;;;3.63;2.20;;;;;;;21.71;75.72;98556.41;5085112;28;20467;-80
2022/08/26 17:56:31;;;;;;;4.65;2.80;;;;;;;21.49;80.12;98562.94;5085356;28;20510;-81
2022/08/26 17:58:59;;;;;;;6.47;2.30;;;;;;;21.49;83.67;98571.22;5086831;28;20109;-80
2022/08/26 18:01:27;;;;;;;3.75;2.90;;;;;;;21.42;84.06;98578.94;5086843;28;20044;-80
2022/08/26 18:03:55;;;;;;;5.10;3.05;;;;;;;21.23;87.27;98581.34;5082918;28;20449;-80
2022/08/26 18:06:22;;;;;;;6.00;3.28;;;;;;;21.11;88.63;98603.69;5086024;28;20495;-79